sensor_id;sensor_type;location;lat;lon;timestamp;P1;durP1;ratioP1;P2;durP2;ratioP2
25950;SDS011;13748;52.240;6.002;2023-06-14T00:00:42;6.77;;;3.40;;
25950;SDS011;13748;52.240;6.002;2023-06-14T00:03:10;4.50;;;3.00;;
25950;SDS011;13748;52.240;6.002;2023-06-14T00:05:38;6.23;;;3.37;;
25950;SDS011;13748;52.240;6.002;2023-06-14T00:08:09;7.30;;;3.70;;
25950;SDS011;13748;52.240;6.002;2023-06-14T00:10:37;6.47;;;3.90;;
25950;SDS011;13748;52.240;6.002;2023-06-14T00:13:05;7.40;;;3.57;;
25950;SDS011;13748;52.240;6.002;2023-06-14T00:15:33;7.00;;;3.37;;
25950;SDS011;13748;52.240;6.002;2023-06-14T00:18:01;4.70;;;3.20;;
25950;SDS011;13748;52.240;6.002;2023-06-14T00:20:29;5.47;;;3.33;;
25950;SDS011;13748;52.240;6.002;2023-06-14T00:22:57;5.20;;;3.13;;
25950;SDS011;13748;52.240;6.002;2023-06-14T00:25:25;7.90;;;3.57;;
25950;SDS011;13748;52.240;6.002;2023-06-14T00:27:55;5.13;;;3.30;;
25950;SDS011;13748;52.240;6.002;2023-06-14T00:30:23;6.03;;;3.60;;
25950;SDS011;13748;52.240;6.002;2023-06-14T00:32:50;6.43;;;3.47;;
25950;SDS011;13748;52.240;6.002;2023-06-14T00:35:18;8.20;;;3.80;;
25950;SDS011;13748;52.240;6.002;2023-06-14T00:37:45;4.53;;;3.10;;
25950;SDS011;13748;52.240;6.002;2023-06-14T00:40:12;7.40;;;3.17;;
25950;SDS011;13748;52.240;6.002;2023-06-14T00:42:39;5.87;;;3.07;;
25950;SDS011;13748;52.240;6.002;2023-06-14T00:45:06;5.30;;;3.10;;
25950;SDS011;13748;52.240;6.002;2023-06-14T00:47:35;4.90;;;2.93;;
25950;SDS011;13748;52.240;6.002;2023-06-14T00:50:06;4.70;;;3.30;;
25950;SDS011;13748;52.240;6.002;2023-06-14T00:52:33;6.23;;;3.27;;
25950;SDS011;13748;52.240;6.002;2023-06-14T00:55:00;9.63;;;4.60;;
25950;SDS011;13748;52.240;6.002;2023-06-14T00:57:28;6.70;;;3.90;;
25950;SDS011;13748;52.240;6.002;2023-06-14T00:59:56;4.30;;;3.10;;
25950;SDS011;13748;52.240;6.002;2023-06-14T01:02:23;6.50;;;3.40;;
25950;SDS011;13748;52.240;6.002;2023-06-14T01:04:52;5.03;;;3.10;;
25950;SDS011;13748;52.240;6.002;2023-06-14T01:09:51;9.23;;;3.37;;
25950;SDS011;13748;52.240;6.002;2023-06-14T01:14:55;4.93;;;3.10;;
25950;SDS011;13748;52.240;6.002;2023-06-14T01:17:23;7.80;;;3.53;;
25950;SDS011;13748;52.240;6.002;2023-06-14T01:19:53;5.60;;;3.37;;
25950;SDS011;13748;52.240;6.002;2023-06-14T01:22:25;6.37;;;3.97;;
25950;SDS011;13748;52.240;6.002;2023-06-14T01:24:52;5.00;;;3.37;;
25950;SDS011;13748;52.240;6.002;2023-06-14T01:27:22;5.00;;;3.17;;
25950;SDS011;13748;52.240;6.002;2023-06-14T01:29:51;6.87;;;3.33;;
25950;SDS011;13748;52.240;6.002;2023-06-14T01:32:23;5.53;;;3.43;;
25950;SDS011;13748;52.240;6.002;2023-06-14T01:34:52;5.27;;;3.10;;
25950;SDS011;13748;52.240;6.002;2023-06-14T01:37:19;5.47;;;3.17;;
25950;SDS011;13748;52.240;6.002;2023-06-14T01:39:48;9.30;;;3.57;;
25950;SDS011;13748;52.240;6.002;2023-06-14T01:42:16;6.10;;;3.40;;
25950;SDS011;13748;52.240;6.002;2023-06-14T01:44:44;4.97;;;3.10;;
25950;SDS011;13748;52.240;6.002;2023-06-14T01:47:12;7.50;;;3.90;;
25950;SDS011;13748;52.240;6.002;2023-06-14T01:49:39;10.00;;;4.07;;
25950;SDS011;13748;52.240;6.002;2023-06-14T01:52:06;6.97;;;3.40;;
25950;SDS011;13748;52.240;6.002;2023-06-14T01:54:36;7.17;;;3.47;;
25950;SDS011;13748;52.240;6.002;2023-06-14T01:57:08;7.37;;;3.73;;
25950;SDS011;13748;52.240;6.002;2023-06-14T01:59:36;5.20;;;3.23;;
25950;SDS011;13748;52.240;6.002;2023-06-14T02:02:03;7.30;;;3.17;;
25950;SDS011;13748;52.240;6.002;2023-06-14T02:04:31;6.63;;;3.40;;
25950;SDS011;13748;52.240;6.002;2023-06-14T02:06:58;5.57;;;3.57;;
25950;SDS011;13748;52.240;6.002;2023-06-14T02:09:25;4.47;;;3.50;;
25950;SDS011;13748;52.240;6.002;2023-06-14T02:11:52;4.70;;;3.20;;
25950;SDS011;13748;52.240;6.002;2023-06-14T02:14:19;7.27;;;3.27;;
25950;SDS011;13748;52.240;6.002;2023-06-14T02:16:46;7.10;;;3.30;;
25950;SDS011;13748;52.240;6.002;2023-06-14T02:19:16;5.10;;;3.40;;
25950;SDS011;13748;52.240;6.002;2023-06-14T02:21:43;7.87;;;3.60;;
25950;SDS011;13748;52.240;6.002;2023-06-14T02:24:11;5.97;;;3.10;;
25950;SDS011;13748;52.240;6.002;2023-06-14T02:26:39;7.27;;;3.47;;
25950;SDS011;13748;52.240;6.002;2023-06-14T02:29:07;6.00;;;3.73;;
25950;SDS011;13748;52.240;6.002;2023-06-14T02:31:38;5.97;;;3.60;;
25950;SDS011;13748;52.240;6.002;2023-06-14T02:34:06;7.77;;;3.50;;
25950;SDS011;13748;52.240;6.002;2023-06-14T02:36:36;9.93;;;3.87;;
25950;SDS011;13748;52.240;6.002;2023-06-14T02:39:08;7.97;;;4.73;;
25950;SDS011;13748;52.240;6.002;2023-06-14T02:41:35;5.50;;;3.63;;
25950;SDS011;13748;52.240;6.002;2023-06-14T02:44:02;5.07;;;3.37;;
25950;SDS011;13748;52.240;6.002;2023-06-14T02:46:30;5.87;;;3.70;;
25950;SDS011;13748;52.240;6.002;2023-06-14T02:48:56;7.30;;;3.27;;
25950;SDS011;13748;52.240;6.002;2023-06-14T02:51:23;5.27;;;2.97;;
25950;SDS011;13748;52.240;6.002;2023-06-14T02:53:50;6.03;;;3.60;;
25950;SDS011;13748;52.240;6.002;2023-06-14T02:56:17;5.67;;;3.47;;
25950;SDS011;13748;52.240;6.002;2023-06-14T02:58:45;4.63;;;3.37;;
25950;SDS011;13748;52.240;6.002;2023-06-14T03:01:12;6.67;;;3.80;;
25950;SDS011;13748;52.240;6.002;2023-06-14T03:03:40;5.83;;;3.53;;
25950;SDS011;13748;52.240;6.002;2023-06-14T03:06:07;9.20;;;3.93;;
25950;SDS011;13748;52.240;6.002;2023-06-14T03:08:35;7.30;;;4.07;;
25950;SDS011;13748;52.240;6.002;2023-06-14T03:11:05;7.60;;;4.00;;
25950;SDS011;13748;52.240;6.002;2023-06-14T03:13:32;6.23;;;3.60;;
25950;SDS011;13748;52.240;6.002;2023-06-14T03:15:59;6.87;;;3.90;;
25950;SDS011;13748;52.240;6.002;2023-06-14T03:18:31;6.47;;;4.03;;
25950;SDS011;13748;52.240;6.002;2023-06-14T03:21:02;6.07;;;3.73;;
25950;SDS011;13748;52.240;6.002;2023-06-14T03:23:29;6.57;;;4.00;;
25950;SDS011;13748;52.240;6.002;2023-06-14T03:25:56;7.83;;;4.07;;
25950;SDS011;13748;52.240;6.002;2023-06-14T03:28:23;6.60;;;3.67;;
25950;SDS011;13748;52.240;6.002;2023-06-14T03:30:50;6.70;;;3.60;;
25950;SDS011;13748;52.240;6.002;2023-06-14T03:33:18;7.40;;;3.97;;
25950;SDS011;13748;52.240;6.002;2023-06-14T03:35:45;6.47;;;3.97;;
25950;SDS011;13748;52.240;6.002;2023-06-14T03:38:12;10.10;;;3.70;;
25950;SDS011;13748;52.240;6.002;2023-06-14T03:40:39;7.77;;;4.33;;
25950;SDS011;13748;52.240;6.002;2023-06-14T03:43:06;5.43;;;4.10;;
25950;SDS011;13748;52.240;6.002;2023-06-14T03:45:33;6.97;;;3.63;;
25950;SDS011;13748;52.240;6.002;2023-06-14T03:47:59;9.43;;;4.20;;
25950;SDS011;13748;52.240;6.002;2023-06-14T03:50:27;6.20;;;3.83;;
25950;SDS011;13748;52.240;6.002;2023-06-14T03:52:54;4.80;;;3.20;;
25950;SDS011;13748;52.240;6.002;2023-06-14T03:55:21;5.70;;;3.37;;
25950;SDS011;13748;52.240;6.002;2023-06-14T03:57:54;6.67;;;4.00;;
25950;SDS011;13748;52.240;6.002;2023-06-14T04:00:21;5.20;;;3.60;;
25950;SDS011;13748;52.240;6.002;2023-06-14T04:02:48;5.60;;;3.73;;
25950;SDS011;13748;52.240;6.002;2023-06-14T04:05:15;8.43;;;4.00;;
25950;SDS011;13748;52.240;6.002;2023-06-14T04:07:43;6.37;;;3.50;;
25950;SDS011;13748;52.240;6.002;2023-06-14T04:10:12;7.33;;;3.93;;
25950;SDS011;13748;52.240;6.002;2023-06-14T04:12:39;8.57;;;4.40;;
25950;SDS011;13748;52.240;6.002;2023-06-14T04:15:09;9.63;;;4.73;;
25950;SDS011;13748;52.240;6.002;2023-06-14T04:17:46;8.93;;;4.23;;
25950;SDS011;13748;52.240;6.002;2023-06-14T04:20:14;6.93;;;3.67;;
25950;SDS011;13748;52.240;6.002;2023-06-14T04:22:41;9.03;;;4.07;;
25950;SDS011;13748;52.240;6.002;2023-06-14T04:25:09;5.03;;;3.50;;
25950;SDS011;13748;52.240;6.002;2023-06-14T04:27:38;5.83;;;3.60;;
25950;SDS011;13748;52.240;6.002;2023-06-14T04:30:05;4.60;;;3.50;;
25950;SDS011;13748;52.240;6.002;2023-06-14T04:32:33;6.93;;;3.77;;
25950;SDS011;13748;52.240;6.002;2023-06-14T04:35:08;7.27;;;3.67;;
25950;SDS011;13748;52.240;6.002;2023-06-14T04:37:35;7.33;;;3.80;;
25950;SDS011;13748;52.240;6.002;2023-06-14T04:40:06;4.53;;;3.60;;
25950;SDS011;13748;52.240;6.002;2023-06-14T04:42:37;5.50;;;3.47;;
25950;SDS011;13748;52.240;6.002;2023-06-14T04:45:04;7.13;;;3.50;;
25950;SDS011;13748;52.240;6.002;2023-06-14T04:47:33;6.23;;;3.07;;
25950;SDS011;13748;52.240;6.002;2023-06-14T04:50:00;5.97;;;3.50;;
25950;SDS011;13748;52.240;6.002;2023-06-14T04:52:29;4.57;;;3.43;;
25950;SDS011;13748;52.240;6.002;2023-06-14T04:54:56;5.67;;;3.73;;
25950;SDS011;13748;52.240;6.002;2023-06-14T04:57:24;9.77;;;3.80;;
25950;SDS011;13748;52.240;6.002;2023-06-14T04:59:51;7.17;;;3.50;;
25950;SDS011;13748;52.240;6.002;2023-06-14T05:02:22;5.37;;;3.50;;
25950;SDS011;13748;52.240;6.002;2023-06-14T05:04:52;7.23;;;3.40;;
25950;SDS011;13748;52.240;6.002;2023-06-14T05:07:20;9.30;;;3.60;;
25950;SDS011;13748;52.240;6.002;2023-06-14T05:09:50;5.80;;;3.50;;
25950;SDS011;13748;52.240;6.002;2023-06-14T05:12:17;5.83;;;3.50;;
25950;SDS011;13748;52.240;6.002;2023-06-14T05:14:45;5.60;;;3.23;;
25950;SDS011;13748;52.240;6.002;2023-06-14T05:17:12;5.57;;;3.13;;
25950;SDS011;13748;52.240;6.002;2023-06-14T05:19:38;7.80;;;3.60;;
25950;SDS011;13748;52.240;6.002;2023-06-14T05:22:06;4.60;;;3.23;;
25950;SDS011;13748;52.240;6.002;2023-06-14T05:24:33;5.93;;;3.13;;
25950;SDS011;13748;52.240;6.002;2023-06-14T05:27:00;7.68;;;3.10;;
25950;SDS011;13748;52.240;6.002;2023-06-14T05:29:27;3.92;;;3.22;;
25950;SDS011;13748;52.240;6.002;2023-06-14T05:31:56;8.30;;;3.10;;
25950;SDS011;13748;52.240;6.002;2023-06-14T05:34:23;5.90;;;3.10;;
25950;SDS011;13748;52.240;6.002;2023-06-14T05:36:50;4.00;;;3.10;;
25950;SDS011;13748;52.240;6.002;2023-06-14T05:39:17;6.43;;;3.30;;
25950;SDS011;13748;52.240;6.002;2023-06-14T05:41:44;6.85;;;3.33;;
25950;SDS011;13748;52.240;6.002;2023-06-14T05:44:12;5.05;;;2.70;;
25950;SDS011;13748;52.240;6.002;2023-06-14T05:46:39;4.95;;;2.67;;
25950;SDS011;13748;52.240;6.002;2023-06-14T05:49:06;3.40;;;2.40;;
25950;SDS011;13748;52.240;6.002;2023-06-14T05:51:33;5.38;;;2.80;;
25950;SDS011;13748;52.240;6.002;2023-06-14T05:54:01;5.90;;;2.97;;
25950;SDS011;13748;52.240;6.002;2023-06-14T05:56:28;4.55;;;2.70;;
25950;SDS011;13748;52.240;6.002;2023-06-14T05:58:56;6.15;;;2.70;;
25950;SDS011;13748;52.240;6.002;2023-06-14T06:01:22;4.28;;;2.83;;
25950;SDS011;13748;52.240;6.002;2023-06-14T06:03:49;5.88;;;2.83;;
25950;SDS011;13748;52.240;6.002;2023-06-14T06:06:16;4.30;;;2.55;;
25950;SDS011;13748;52.240;6.002;2023-06-14T06:08:43;3.55;;;2.67;;
25950;SDS011;13748;52.240;6.002;2023-06-14T06:11:11;3.10;;;2.72;;
25950;SDS011;13748;52.240;6.002;2023-06-14T06:13:38;4.15;;;2.35;;
25950;SDS011;13748;52.240;6.002;2023-06-14T06:16:08;4.28;;;2.40;;
25950;SDS011;13748;52.240;6.002;2023-06-14T06:18:35;4.53;;;2.35;;
25950;SDS011;13748;52.240;6.002;2023-06-14T06:21:03;5.68;;;2.17;;
25950;SDS011;13748;52.240;6.002;2023-06-14T06:23:31;3.33;;;2.45;;
25950;SDS011;13748;52.240;6.002;2023-06-14T06:25:58;3.20;;;2.35;;
25950;SDS011;13748;52.240;6.002;2023-06-14T06:28:25;4.00;;;2.58;;
25950;SDS011;13748;52.240;6.002;2023-06-14T06:30:52;4.10;;;2.60;;
25950;SDS011;13748;52.240;6.002;2023-06-14T06:33:20;2.97;;;2.30;;
25950;SDS011;13748;52.240;6.002;2023-06-14T06:35:47;2.90;;;2.50;;
25950;SDS011;13748;52.240;6.002;2023-06-14T06:38:15;5.38;;;2.55;;
25950;SDS011;13748;52.240;6.002;2023-06-14T06:40:41;3.15;;;2.10;;
25950;SDS011;13748;52.240;6.002;2023-06-14T06:43:08;2.60;;;2.10;;
25950;SDS011;13748;52.240;6.002;2023-06-14T06:45:35;6.82;;;2.50;;
25950;SDS011;13748;52.240;6.002;2023-06-14T06:48:02;3.50;;;2.15;;
25950;SDS011;13748;52.240;6.002;2023-06-14T06:50:29;5.70;;;2.28;;
25950;SDS011;13748;52.240;6.002;2023-06-14T06:52:56;2.28;;;2.00;;
25950;SDS011;13748;52.240;6.002;2023-06-14T06:55:23;2.92;;;1.92;;
25950;SDS011;13748;52.240;6.002;2023-06-14T06:57:50;3.00;;;2.00;;
25950;SDS011;13748;52.240;6.002;2023-06-14T07:00:20;2.88;;;1.95;;
25950;SDS011;13748;52.240;6.002;2023-06-14T07:02:53;2.88;;;1.70;;
25950;SDS011;13748;52.240;6.002;2023-06-14T07:05:21;5.60;;;2.38;;
25950;SDS011;13748;52.240;6.002;2023-06-14T07:07:48;3.90;;;1.70;;
25950;SDS011;13748;52.240;6.002;2023-06-14T07:10:15;2.35;;;1.80;;
25950;SDS011;13748;52.240;6.002;2023-06-14T07:12:43;3.47;;;1.70;;
25950;SDS011;13748;52.240;6.002;2023-06-14T07:15:10;2.67;;;2.10;;
25950;SDS011;13748;52.240;6.002;2023-06-14T07:17:39;2.08;;;1.88;;
25950;SDS011;13748;52.240;6.002;2023-06-14T07:20:06;3.90;;;1.60;;
25950;SDS011;13748;52.240;6.002;2023-06-14T07:22:40;3.30;;;1.75;;
25950;SDS011;13748;52.240;6.002;2023-06-14T07:25:11;3.67;;;1.58;;
25950;SDS011;13748;52.240;6.002;2023-06-14T07:27:42;2.53;;;1.80;;
25950;SDS011;13748;52.240;6.002;2023-06-14T07:30:12;4.75;;;2.17;;
25950;SDS011;13748;52.240;6.002;2023-06-14T07:32:39;3.00;;;1.90;;
25950;SDS011;13748;52.240;6.002;2023-06-14T07:35:06;8.07;;;1.90;;
25950;SDS011;13748;52.240;6.002;2023-06-14T07:37:33;3.78;;;1.70;;
25950;SDS011;13748;52.240;6.002;2023-06-14T07:40:01;5.75;;;2.10;;
25950;SDS011;13748;52.240;6.002;2023-06-14T07:42:36;1.92;;;1.73;;
25950;SDS011;13748;52.240;6.002;2023-06-14T07:45:03;2.88;;;1.60;;
25950;SDS011;13748;52.240;6.002;2023-06-14T07:47:30;2.70;;;1.70;;
25950;SDS011;13748;52.240;6.002;2023-06-14T07:49:58;2.55;;;1.80;;
25950;SDS011;13748;52.240;6.002;2023-06-14T07:52:25;4.50;;;1.63;;
25950;SDS011;13748;52.240;6.002;2023-06-14T07:54:53;5.20;;;1.90;;
25950;SDS011;13748;52.240;6.002;2023-06-14T07:57:20;6.10;;;1.60;;
25950;SDS011;13748;52.240;6.002;2023-06-14T07:59:46;2.47;;;1.70;;
25950;SDS011;13748;52.240;6.002;2023-06-14T08:02:13;5.47;;;1.90;;
25950;SDS011;13748;52.240;6.002;2023-06-14T08:04:40;4.25;;;1.92;;
25950;SDS011;13748;52.240;6.002;2023-06-14T08:07:08;3.13;;;1.98;;
25950;SDS011;13748;52.240;6.002;2023-06-14T08:09:35;3.03;;;1.80;;
25950;SDS011;13748;52.240;6.002;2023-06-14T08:12:04;3.75;;;1.75;;
25950;SDS011;13748;52.240;6.002;2023-06-14T08:14:33;2.67;;;1.83;;
25950;SDS011;13748;52.240;6.002;2023-06-14T08:17:00;4.00;;;2.13;;
25950;SDS011;13748;52.240;6.002;2023-06-14T08:19:27;2.97;;;1.55;;
25950;SDS011;13748;52.240;6.002;2023-06-14T08:21:54;3.03;;;1.95;;
25950;SDS011;13748;52.240;6.002;2023-06-14T08:24:22;3.80;;;1.80;;
25950;SDS011;13748;52.240;6.002;2023-06-14T08:26:50;4.00;;;1.85;;
25950;SDS011;13748;52.240;6.002;2023-06-14T08:29:18;2.72;;;1.70;;
25950;SDS011;13748;52.240;6.002;2023-06-14T08:31:45;2.72;;;1.73;;
25950;SDS011;13748;52.240;6.002;2023-06-14T08:34:11;3.28;;;1.52;;
25950;SDS011;13748;52.240;6.002;2023-06-14T08:36:38;3.10;;;1.70;;
25950;SDS011;13748;52.240;6.002;2023-06-14T08:39:05;2.45;;;1.55;;
25950;SDS011;13748;52.240;6.002;2023-06-14T08:41:32;1.88;;;1.35;;
25950;SDS011;13748;52.240;6.002;2023-06-14T08:44:00;2.28;;;1.70;;
25950;SDS011;13748;52.240;6.002;2023-06-14T08:46:27;3.17;;;1.67;;
25950;SDS011;13748;52.240;6.002;2023-06-14T08:48:59;6.15;;;1.58;;
25950;SDS011;13748;52.240;6.002;2023-06-14T08:51:27;3.33;;;1.77;;
25950;SDS011;13748;52.240;6.002;2023-06-14T08:54:00;5.70;;;1.90;;
25950;SDS011;13748;52.240;6.002;2023-06-14T08:56:28;3.83;;;1.60;;
25950;SDS011;13748;52.240;6.002;2023-06-14T08:58:58;2.60;;;1.60;;
25950;SDS011;13748;52.240;6.002;2023-06-14T09:01:33;2.88;;;1.80;;
25950;SDS011;13748;52.240;6.002;2023-06-14T09:04:01;2.00;;;1.60;;
25950;SDS011;13748;52.240;6.002;2023-06-14T09:06:28;2.05;;;1.30;;
25950;SDS011;13748;52.240;6.002;2023-06-14T09:08:56;2.35;;;1.70;;
25950;SDS011;13748;52.240;6.002;2023-06-14T09:11:23;3.40;;;1.80;;
25950;SDS011;13748;52.240;6.002;2023-06-14T09:13:52;2.78;;;1.55;;
25950;SDS011;13748;52.240;6.002;2023-06-14T09:16:19;3.47;;;1.83;;
25950;SDS011;13748;52.240;6.002;2023-06-14T09:18:46;2.80;;;2.00;;
25950;SDS011;13748;52.240;6.002;2023-06-14T09:21:15;3.20;;;1.88;;
25950;SDS011;13748;52.240;6.002;2023-06-14T09:23:43;3.67;;;1.80;;
25950;SDS011;13748;52.240;6.002;2023-06-14T09:26:12;3.67;;;1.67;;
25950;SDS011;13748;52.240;6.002;2023-06-14T09:28:47;1.83;;;1.45;;
25950;SDS011;13748;52.240;6.002;2023-06-14T09:31:17;7.10;;;1.92;;
25950;SDS011;13748;52.240;6.002;2023-06-14T09:33:45;5.40;;;1.92;;
25950;SDS011;13748;52.240;6.002;2023-06-14T09:36:23;2.60;;;1.90;;
25950;SDS011;13748;52.240;6.002;2023-06-14T09:38:57;2.58;;;1.50;;
25950;SDS011;13748;52.240;6.002;2023-06-14T09:41:35;2.45;;;1.65;;
25950;SDS011;13748;52.240;6.002;2023-06-14T09:44:03;2.55;;;1.60;;
25950;SDS011;13748;52.240;6.002;2023-06-14T09:46:37;3.55;;;1.77;;
25950;SDS011;13748;52.240;6.002;2023-06-14T09:49:05;2.97;;;1.38;;
25950;SDS011;13748;52.240;6.002;2023-06-14T09:51:33;1.88;;;1.58;;
25950;SDS011;13748;52.240;6.002;2023-06-14T09:54:02;2.08;;;1.50;;
25950;SDS011;13748;52.240;6.002;2023-06-14T09:56:41;1.35;;;1.20;;
25950;SDS011;13748;52.240;6.002;2023-06-14T09:59:10;1.52;;;1.27;;
25950;SDS011;13748;52.240;6.002;2023-06-14T10:01:42;1.60;;;1.50;;
25950;SDS011;13748;52.240;6.002;2023-06-14T10:04:10;4.13;;;1.60;;
25950;SDS011;13748;52.240;6.002;2023-06-14T10:06:43;2.00;;;1.60;;
25950;SDS011;13748;52.240;6.002;2023-06-14T10:09:12;2.80;;;1.80;;
25950;SDS011;13748;52.240;6.002;2023-06-14T10:11:40;3.33;;;1.80;;
25950;SDS011;13748;52.240;6.002;2023-06-14T10:14:11;2.65;;;1.50;;
25950;SDS011;13748;52.240;6.002;2023-06-14T10:19:27;3.55;;;1.60;;
25950;SDS011;13748;52.240;6.002;2023-06-14T10:24:45;1.65;;;1.38;;
25950;SDS011;13748;52.240;6.002;2023-06-14T10:27:14;3.67;;;1.52;;
25950;SDS011;13748;52.240;6.002;2023-06-14T10:32:20;2.17;;;1.50;;
25950;SDS011;13748;52.240;6.002;2023-06-14T10:34:56;2.10;;;1.60;;
25950;SDS011;13748;52.240;6.002;2023-06-14T10:37:30;2.22;;;1.48;;
25950;SDS011;13748;52.240;6.002;2023-06-14T10:39:56;3.30;;;1.45;;
25950;SDS011;13748;52.240;6.002;2023-06-14T10:42:28;2.55;;;1.70;;
25950;SDS011;13748;52.240;6.002;2023-06-14T10:44:58;2.38;;;1.52;;
25950;SDS011;13748;52.240;6.002;2023-06-14T10:47:31;1.83;;;1.58;;
25950;SDS011;13748;52.240;6.002;2023-06-14T10:50:03;2.55;;;1.20;;
25950;SDS011;13748;52.240;6.002;2023-06-14T10:52:37;4.50;;;2.30;;
25950;SDS011;13748;52.240;6.002;2023-06-14T10:55:06;4.13;;;1.80;;
25950;SDS011;13748;52.240;6.002;2023-06-14T11:00:21;4.63;;;1.77;;
25950;SDS011;13748;52.240;6.002;2023-06-14T11:05:50;3.85;;;1.77;;
25950;SDS011;13748;52.240;6.002;2023-06-14T11:11:08;35.83;;;4.18;;
25950;SDS011;13748;52.240;6.002;2023-06-14T11:13:44;13.13;;;2.47;;
25950;SDS011;13748;52.240;6.002;2023-06-14T11:16:15;3.88;;;1.60;;
25950;SDS011;13748;52.240;6.002;2023-06-14T11:18:45;3.10;;;1.70;;
25950;SDS011;13748;52.240;6.002;2023-06-14T11:21:18;2.10;;;1.90;;
25950;SDS011;13748;52.240;6.002;2023-06-14T11:23:50;2.85;;;1.95;;
25950;SDS011;13748;52.240;6.002;2023-06-14T11:26:26;1.80;;;1.65;;
25950;SDS011;13748;52.240;6.002;2023-06-14T11:28:55;4.40;;;1.50;;
25950;SDS011;13748;52.240;6.002;2023-06-14T11:31:23;4.07;;;1.60;;
25950;SDS011;13748;52.240;6.002;2023-06-14T11:33:57;2.25;;;1.60;;
25950;SDS011;13748;52.240;6.002;2023-06-14T11:36:29;3.50;;;1.73;;
25950;SDS011;13748;52.240;6.002;2023-06-14T11:39:07;1.70;;;1.50;;
25950;SDS011;13748;52.240;6.002;2023-06-14T11:44:11;4.20;;;1.70;;
25950;SDS011;13748;52.240;6.002;2023-06-14T11:46:38;3.47;;;1.33;;
25950;SDS011;13748;52.240;6.002;2023-06-14T11:49:06;5.65;;;1.40;;
25950;SDS011;13748;52.240;6.002;2023-06-14T11:51:34;3.50;;;2.03;;
25950;SDS011;13748;52.240;6.002;2023-06-14T11:54:02;2.00;;;1.50;;
25950;SDS011;13748;52.240;6.002;2023-06-14T11:56:30;3.83;;;1.73;;
25950;SDS011;13748;52.240;6.002;2023-06-14T11:58:58;1.67;;;1.40;;
25950;SDS011;13748;52.240;6.002;2023-06-14T12:01:25;3.13;;;1.48;;
25950;SDS011;13748;52.240;6.002;2023-06-14T12:03:53;2.20;;;1.85;;
25950;SDS011;13748;52.240;6.002;2023-06-14T12:06:28;1.80;;;1.30;;
25950;SDS011;13748;52.240;6.002;2023-06-14T12:08:59;2.70;;;1.60;;
25950;SDS011;13748;52.240;6.002;2023-06-14T12:11:34;2.05;;;1.52;;
25950;SDS011;13748;52.240;6.002;2023-06-14T12:14:05;2.25;;;1.50;;
25950;SDS011;13748;52.240;6.002;2023-06-14T12:16:32;2.72;;;1.67;;
25950;SDS011;13748;52.240;6.002;2023-06-14T12:19:08;4.13;;;1.73;;
25950;SDS011;13748;52.240;6.002;2023-06-14T12:21:40;2.05;;;1.70;;
25950;SDS011;13748;52.240;6.002;2023-06-14T12:24:08;9.32;;;1.67;;
25950;SDS011;13748;52.240;6.002;2023-06-14T12:26:39;3.55;;;1.60;;
25950;SDS011;13748;52.240;6.002;2023-06-14T12:29:09;1.90;;;1.40;;
25950;SDS011;13748;52.240;6.002;2023-06-14T12:31:38;4.32;;;1.63;;
25950;SDS011;13748;52.240;6.002;2023-06-14T12:34:05;2.78;;;1.40;;
25950;SDS011;13748;52.240;6.002;2023-06-14T12:36:32;3.55;;;1.55;;
25950;SDS011;13748;52.240;6.002;2023-06-14T12:39:00;3.15;;;1.48;;
25950;SDS011;13748;52.240;6.002;2023-06-14T12:41:27;5.10;;;1.60;;
25950;SDS011;13748;52.240;6.002;2023-06-14T12:43:54;3.85;;;2.08;;
25950;SDS011;13748;52.240;6.002;2023-06-14T12:46:21;2.08;;;1.40;;
25950;SDS011;13748;52.240;6.002;2023-06-14T12:48:48;1.95;;;1.50;;
25950;SDS011;13748;52.240;6.002;2023-06-14T12:51:16;4.07;;;1.70;;
25950;SDS011;13748;52.240;6.002;2023-06-14T12:53:42;1.65;;;1.40;;
25950;SDS011;13748;52.240;6.002;2023-06-14T12:56:10;2.65;;;1.70;;
25950;SDS011;13748;52.240;6.002;2023-06-14T12:58:38;3.85;;;1.80;;
25950;SDS011;13748;52.240;6.002;2023-06-14T13:01:05;3.15;;;1.70;;
25950;SDS011;13748;52.240;6.002;2023-06-14T13:03:32;1.60;;;1.50;;
25950;SDS011;13748;52.240;6.002;2023-06-14T13:06:00;2.05;;;1.50;;
25950;SDS011;13748;52.240;6.002;2023-06-14T13:08:28;1.80;;;1.55;;
25950;SDS011;13748;52.240;6.002;2023-06-14T13:10:55;1.95;;;1.30;;
25950;SDS011;13748;52.240;6.002;2023-06-14T13:13:22;4.93;;;1.63;;
25950;SDS011;13748;52.240;6.002;2023-06-14T13:15:49;2.38;;;1.50;;
25950;SDS011;13748;52.240;6.002;2023-06-14T13:18:17;1.42;;;1.33;;
25950;SDS011;13748;52.240;6.002;2023-06-14T13:20:45;2.72;;;2.05;;
25950;SDS011;13748;52.240;6.002;2023-06-14T13:23:15;2.03;;;1.60;;
25950;SDS011;13748;52.240;6.002;2023-06-14T13:25:42;5.47;;;1.98;;
25950;SDS011;13748;52.240;6.002;2023-06-14T13:28:09;2.28;;;1.52;;
25950;SDS011;13748;52.240;6.002;2023-06-14T13:30:36;3.42;;;1.75;;
25950;SDS011;13748;52.240;6.002;2023-06-14T13:33:04;2.45;;;1.35;;
25950;SDS011;13748;52.240;6.002;2023-06-14T13:35:32;6.30;;;1.73;;
25950;SDS011;13748;52.240;6.002;2023-06-14T13:37:59;10.80;;;2.10;;
25950;SDS011;13748;52.240;6.002;2023-06-14T13:40:26;2.15;;;1.30;;
25950;SDS011;13748;52.240;6.002;2023-06-14T13:42:53;4.30;;;1.48;;
25950;SDS011;13748;52.240;6.002;2023-06-14T13:45:20;3.08;;;1.50;;
25950;SDS011;13748;52.240;6.002;2023-06-14T13:47:46;4.72;;;1.33;;
25950;SDS011;13748;52.240;6.002;2023-06-14T13:50:15;3.72;;;1.38;;
25950;SDS011;13748;52.240;6.002;2023-06-14T13:52:42;4.13;;;1.60;;
25950;SDS011;13748;52.240;6.002;2023-06-14T13:55:09;2.30;;;1.33;;
25950;SDS011;13748;52.240;6.002;2023-06-14T13:57:36;2.92;;;2.00;;
25950;SDS011;13748;52.240;6.002;2023-06-14T14:00:03;1.75;;;1.27;;
25950;SDS011;13748;52.240;6.002;2023-06-14T14:02:48;1.30;;;1.15;;
25950;SDS011;13748;52.240;6.002;2023-06-14T14:05:26;3.13;;;1.30;;
25950;SDS011;13748;52.240;6.002;2023-06-14T14:07:56;1.33;;;1.15;;
25950;SDS011;13748;52.240;6.002;2023-06-14T14:10:25;2.30;;;1.20;;
25950;SDS011;13748;52.240;6.002;2023-06-14T14:12:57;2.00;;;1.00;;
25950;SDS011;13748;52.240;6.002;2023-06-14T14:15:30;2.25;;;1.50;;
25950;SDS011;13748;52.240;6.002;2023-06-14T14:18:05;1.40;;;1.30;;
25950;SDS011;13748;52.240;6.002;2023-06-14T14:21:05;4.28;;;1.98;;
25950;SDS011;13748;52.240;6.002;2023-06-14T14:23:32;2.67;;;1.60;;
25950;SDS011;13748;52.240;6.002;2023-06-14T14:25:59;2.03;;;1.30;;
25950;SDS011;13748;52.240;6.002;2023-06-14T14:28:36;2.50;;;1.50;;
25950;SDS011;13748;52.240;6.002;2023-06-14T14:31:03;1.98;;;1.48;;
25950;SDS011;13748;52.240;6.002;2023-06-14T14:33:30;2.17;;;1.55;;
25950;SDS011;13748;52.240;6.002;2023-06-14T14:35:57;1.60;;;1.40;;
25950;SDS011;13748;52.240;6.002;2023-06-14T14:38:24;3.00;;;1.33;;
25950;SDS011;13748;52.240;6.002;2023-06-14T14:40:53;1.98;;;1.30;;
25950;SDS011;13748;52.240;6.002;2023-06-14T14:43:23;1.70;;;1.50;;
25950;SDS011;13748;52.240;6.002;2023-06-14T14:45:50;2.85;;;1.40;;
25950;SDS011;13748;52.240;6.002;2023-06-14T14:48:17;5.00;;;1.30;;
25950;SDS011;13748;52.240;6.002;2023-06-14T14:50:46;1.40;;;1.23;;
25950;SDS011;13748;52.240;6.002;2023-06-14T14:53:14;3.08;;;1.40;;
25950;SDS011;13748;52.240;6.002;2023-06-14T14:55:43;1.40;;;1.30;;
25950;SDS011;13748;52.240;6.002;2023-06-14T14:58:11;2.47;;;1.35;;
25950;SDS011;13748;52.240;6.002;2023-06-14T15:00:38;3.65;;;1.33;;
25950;SDS011;13748;52.240;6.002;2023-06-14T15:03:05;2.33;;;1.40;;
25950;SDS011;13748;52.240;6.002;2023-06-14T15:05:32;2.55;;;1.20;;
25950;SDS011;13748;52.240;6.002;2023-06-14T15:07:59;3.15;;;1.40;;
25950;SDS011;13748;52.240;6.002;2023-06-14T15:10:26;3.30;;;1.70;;
25950;SDS011;13748;52.240;6.002;2023-06-14T15:12:53;1.77;;;1.65;;
25950;SDS011;13748;52.240;6.002;2023-06-14T15:15:21;3.25;;;1.58;;
25950;SDS011;13748;52.240;6.002;2023-06-14T15:17:48;2.38;;;1.20;;
25950;SDS011;13748;52.240;6.002;2023-06-14T15:20:15;3.47;;;2.75;;